createdAt,value
2022-08-17T00:00:01.638Z,84.21
2022-08-17T00:02:29.701Z,84.24
2022-08-17T00:04:58.572Z,84.41
2022-08-17T00:07:25.840Z,84.22
2022-08-17T00:09:52.995Z,84.46
2022-08-17T00:12:41.280Z,84.75
2022-08-17T00:15:10.543Z,84.98
2022-08-17T00:17:38.833Z,84.90
2022-08-17T00:20:06.843Z,84.11
2022-08-17T00:22:36.406Z,84.81
2022-08-17T00:25:07.534Z,84.36
2022-08-17T00:27:38.003Z,84.10
2022-08-17T00:30:07.588Z,84.36
2022-08-17T00:33:12.227Z,84.10
2022-08-17T00:35:40.663Z,84.10
2022-08-17T00:38:10.312Z,84.44
2022-08-17T00:40:44.617Z,84.02
2022-08-17T00:43:27.208Z,84.48
2022-08-17T00:45:55.197Z,84.30
2022-08-17T00:48:30.038Z,83.98
2022-08-17T00:51:03.776Z,84.14
2022-08-17T00:53:33.847Z,84.17
2022-08-17T00:56:03.590Z,84.03
2022-08-17T00:58:36.228Z,84.38
2022-08-17T01:01:05.435Z,84.03
2022-08-17T01:03:33.694Z,84.40
2022-08-17T01:06:04.714Z,84.54
2022-08-17T01:08:33.455Z,84.42
2022-08-17T01:11:05.813Z,85.01
2022-08-17T01:13:41.268Z,85.17
2022-08-17T01:16:26.282Z,85.43
2022-08-17T01:19:02.722Z,85.36
2022-08-17T01:22:00.803Z,85.11
2022-08-17T01:24:29.388Z,85.32
2022-08-17T01:26:57.719Z,85.63
2022-08-17T01:29:26.145Z,85.67
2022-08-17T01:31:56.949Z,85.56
2022-08-17T01:34:42.873Z,86.16
2022-08-17T01:37:13.344Z,86.28
2022-08-17T01:39:45.623Z,86.44
2022-08-17T01:42:36.813Z,85.78
2022-08-17T01:45:11.917Z,85.09
2022-08-17T01:47:39.209Z,84.98
2022-08-17T01:50:12.184Z,85.30
2022-08-17T01:52:40.453Z,85.00
2022-08-17T01:55:10.106Z,85.35
2022-08-17T01:57:37.319Z,85.46
2022-08-17T02:00:10.490Z,85.57
2022-08-17T02:02:37.438Z,86.60
2022-08-17T02:05:05.376Z,86.50
2022-08-17T02:07:32.533Z,86.23
2022-08-17T02:10:20.281Z,86.34
2022-08-17T02:12:49.326Z,86.03
2022-08-17T02:15:16.542Z,86.03
2022-08-17T02:17:43.600Z,85.89
2022-08-17T02:20:11.520Z,85.96
2022-08-17T02:22:40.322Z,86.37
2022-08-17T02:25:09.902Z,86.93
2022-08-17T02:27:39.037Z,86.45
2022-08-17T02:31:00.254Z,86.60
2022-08-17T02:32:56.475Z,87.11
2022-08-17T02:35:23.919Z,86.86
2022-08-17T02:37:51.951Z,86.50
2022-08-17T02:40:35.755Z,85.88
2022-08-17T02:43:05.486Z,85.89
2022-08-17T02:45:32.730Z,85.91
2022-08-17T02:47:59.773Z,85.22
2022-08-17T02:50:27.235Z,85.47
2022-08-17T02:53:01.747Z,85.53
2022-08-17T02:55:36.361Z,85.88
2022-08-17T02:58:04.409Z,85.83
2022-08-17T03:00:35.452Z,86.39
2022-08-17T03:03:05.865Z,86.07
2022-08-17T03:05:35.578Z,86.22
2022-08-17T03:08:05.773Z,86.05
2022-08-17T03:10:33.341Z,86.03
2022-08-17T03:13:00.850Z,86.47
2022-08-17T03:15:31.750Z,86.73
2022-08-17T03:17:59.857Z,87.08
2022-08-17T03:20:28.669Z,86.47
2022-08-17T03:23:02.980Z,87.29
2022-08-17T03:25:37.540Z,87.79
2022-08-17T03:28:06.563Z,87.83
2022-08-17T03:30:34.520Z,87.55
2022-08-17T03:33:04.986Z,87.97
2022-08-17T03:35:34.811Z,87.22
2022-08-17T03:38:02.629Z,87.21
2022-08-17T03:40:34.449Z,87.69
2022-08-17T03:43:19.384Z,87.47
2022-08-17T03:46:05.026Z,87.57
2022-08-17T03:48:51.558Z,87.47
2022-08-17T03:51:48.367Z,87.49
2022-08-17T03:54:33.781Z,87.74
2022-08-17T03:57:05.583Z,87.69
2022-08-17T03:59:33.555Z,88.62
2022-08-17T04:02:13.557Z,88.32
2022-08-17T04:04:40.994Z,88.06
2022-08-17T04:07:08.242Z,88.38
2022-08-17T04:09:36.840Z,88.65
2022-08-17T04:12:05.435Z,88.97
2022-08-17T04:14:51.890Z,88.31
2022-08-17T04:17:23.439Z,88.56
2022-08-17T04:19:50.586Z,88.21
2022-08-17T04:22:32.737Z,88.21
2022-08-17T04:25:08.920Z,88.42
2022-08-17T04:27:36.551Z,88.94
2022-08-17T04:30:07.555Z,88.92
2022-08-17T04:33:06.217Z,89.49
2022-08-17T04:35:38.590Z,89.65
2022-08-17T04:38:07.463Z,89.47
2022-08-17T04:40:52.969Z,89.24
2022-08-17T04:43:22.147Z,89.19
2022-08-17T04:45:56.240Z,88.88
2022-08-17T04:48:37.362Z,89.18
2022-08-17T04:51:08.599Z,88.87
2022-08-17T04:53:35.851Z,89.05
2022-08-17T04:56:03.073Z,88.74
2022-08-17T04:58:30.268Z,88.63
2022-08-17T05:00:57.848Z,88.62
2022-08-17T05:03:25.055Z,88.81
2022-08-17T05:05:52.177Z,88.58
2022-08-17T05:08:20.986Z,88.96
2022-08-17T05:10:49.343Z,88.32
2022-08-17T05:13:24.306Z,88.42
2022-08-17T05:15:55.761Z,88.37
2022-08-17T05:18:24.431Z,88.97
2022-08-17T05:20:52.601Z,88.71
2022-08-17T05:23:21.195Z,89.24
2022-08-17T05:25:50.783Z,89.52
2022-08-17T05:28:24.122Z,88.86
2022-08-17T05:30:55.361Z,89.19
2022-08-17T05:33:25.574Z,89.79
2022-08-17T05:35:55.003Z,89.36
2022-08-17T05:38:24.554Z,89.24
2022-08-17T05:40:52.788Z,89.38
2022-08-17T05:43:25.746Z,89.17
2022-08-17T05:46:22.922Z,89.33
2022-08-17T05:48:53.034Z,89.86
2022-08-17T05:51:59.239Z,91.04
2022-08-17T05:54:28.962Z,90.40
2022-08-17T05:57:34.591Z,90.58
2022-08-17T06:00:26.230Z,90.22
2022-08-17T06:03:11.365Z,90.37
2022-08-17T06:05:59.673Z,90.37
2022-08-17T06:08:37.140Z,90.76
2022-08-17T06:11:39.110Z,90.30
2022-08-17T06:14:30.984Z,90.07
2022-08-17T06:17:06.391Z,90.47
2022-08-17T06:19:42.182Z,90.52
2022-08-17T06:22:13.648Z,90.45
2022-08-17T06:24:51.637Z,90.04
2022-08-17T06:27:46.197Z,90.14
2022-08-17T06:30:15.565Z,90.23
2022-08-17T06:32:45.380Z,90.37
2022-08-17T06:35:16.973Z,89.58
2022-08-17T06:38:05.084Z,89.95
2022-08-17T06:40:47.368Z,89.92
2022-08-17T06:43:51.516Z,89.76
2022-08-17T06:46:33.408Z,90.25
2022-08-17T06:49:22.169Z,90.14
2022-08-17T06:52:07.576Z,90.70
2022-08-17T06:55:00.445Z,90.52
2022-08-17T06:57:33.270Z,90.85
2022-08-17T07:00:17.619Z,90.80
2022-08-17T07:03:07.246Z,90.26
2022-08-17T07:05:37.362Z,90.17
2022-08-17T07:08:35.176Z,90.44
2022-08-17T07:11:32.436Z,89.50
2022-08-17T07:14:17.276Z,89.25
2022-08-17T07:16:49.084Z,89.16
2022-08-17T07:19:18.783Z,88.89
2022-08-17T07:22:06.036Z,89.07
2022-08-17T07:24:47.485Z,89.14
2022-08-17T07:27:31.386Z,90.06
2022-08-17T07:30:06.780Z,89.41
2022-08-17T07:32:45.516Z,89.46
2022-08-17T07:35:41.240Z,89.61
2022-08-17T07:38:24.958Z,89.69
2022-08-17T07:41:03.085Z,89.88
2022-08-17T07:43:35.793Z,89.66
2022-08-17T07:46:30.590Z,90.11
2022-08-17T07:49:23.484Z,90.16
2022-08-17T07:51:51.420Z,89.95
2022-08-17T07:54:35.870Z,89.79
2022-08-17T07:57:08.792Z,89.83
2022-08-17T07:59:38.826Z,89.73
2022-08-17T08:02:17.795Z,90.22
2022-08-17T08:05:01.205Z,90.33
2022-08-17T08:07:50.640Z,91.00
2022-08-17T08:10:27.947Z,91.48
2022-08-17T08:13:12.307Z,91.90
2022-08-17T08:15:53.666Z,92.25
2022-08-17T08:18:53.636Z,91.78
2022-08-17T08:21:59.205Z,91.75
2022-08-17T08:24:44.970Z,91.46
2022-08-17T08:27:34.992Z,91.28
2022-08-17T08:30:06.686Z,90.99
2022-08-17T08:32:57.705Z,90.76
2022-08-17T08:35:44.575Z,88.58
2022-08-17T08:38:28.273Z,88.07
2022-08-17T08:41:30.667Z,88.04
2022-08-17T08:45:01.096Z,87.58
2022-08-17T08:47:37.645Z,87.16
2022-08-17T08:50:37.110Z,86.63
2022-08-17T08:53:14.511Z,86.10
2022-08-17T08:55:51.165Z,84.58
2022-08-17T08:58:31.467Z,82.90
2022-08-17T09:01:18.466Z,82.33
2022-08-17T09:04:23.251Z,82.57
2022-08-17T09:07:08.431Z,82.91
2022-08-17T09:10:05.218Z,83.41
2022-08-17T09:12:56.560Z,81.44
2022-08-17T09:15:28.702Z,81.42
2022-08-17T09:18:59.369Z,80.72
2022-08-17T09:23:39.157Z,81.29
2022-08-17T09:26:25.600Z,79.30
2022-08-17T09:28:55.969Z,79.86
2022-08-17T09:31:33.149Z,79.16
2022-08-17T09:34:09.268Z,77.76
2022-08-17T09:36:44.868Z,77.46
2022-08-17T09:39:20.494Z,77.35
2022-08-17T09:42:05.048Z,77.11
2022-08-17T09:44:49.744Z,77.56
2022-08-17T09:47:32.748Z,78.02
2022-08-17T09:51:05.013Z,77.62
2022-08-17T09:53:17.942Z,76.65
2022-08-17T09:56:20.012Z,76.83
2022-08-17T09:59:22.634Z,76.57
2022-08-17T10:02:16.806Z,76.25
2022-08-17T10:04:58.806Z,74.53
2022-08-17T10:07:36.896Z,74.09
2022-08-17T10:10:56.748Z,73.87
2022-08-17T10:13:41.811Z,74.86
2022-08-17T10:16:23.388Z,74.27
2022-08-17T10:19:07.381Z,74.45
2022-08-17T10:22:01.083Z,74.85
2022-08-17T10:25:23.416Z,72.52
2022-08-17T10:28:02.032Z,71.37
2022-08-17T10:30:33.023Z,72.23
2022-08-17T10:33:15.806Z,70.47
2022-08-17T10:36:01.643Z,70.22
2022-08-17T10:38:40.173Z,70.00
2022-08-17T10:41:33.895Z,70.70
2022-08-17T10:44:41.078Z,70.45
2022-08-17T10:47:15.260Z,70.75
2022-08-17T10:49:54.354Z,71.58
2022-08-17T10:52:22.122Z,71.99
2022-08-17T10:54:51.873Z,71.08
2022-08-17T10:57:31.937Z,71.57
2022-08-17T11:00:00.674Z,71.98
2022-08-17T11:02:31.658Z,71.90
2022-08-17T11:05:14.539Z,70.56
2022-08-17T11:08:05.410Z,70.54
2022-08-17T11:10:57.214Z,69.59
2022-08-17T11:13:45.168Z,68.21
2022-08-17T11:16:53.467Z,68.76
2022-08-17T11:19:57.869Z,68.68
2022-08-17T11:22:44.602Z,68.61
2022-08-17T11:25:31.972Z,68.33
2022-08-17T11:28:34.742Z,67.79
2022-08-17T11:31:38.373Z,67.59
2022-08-17T11:34:19.009Z,67.99
2022-08-17T11:37:01.922Z,66.51
2022-08-17T11:40:08.493Z,66.18
2022-08-17T11:42:50.480Z,66.19
2022-08-17T11:45:32.491Z,66.21
2022-08-17T11:48:55.377Z,65.51
2022-08-17T11:51:55.118Z,65.39
2022-08-17T11:54:33.751Z,65.81
2022-08-17T11:57:21.686Z,65.31
2022-08-17T11:59:48.550Z,65.32
2022-08-17T12:02:35.228Z,64.43
2022-08-17T12:05:13.273Z,64.38
2022-08-17T12:08:07.246Z,64.03
2022-08-17T12:10:36.865Z,63.79
2022-08-17T12:13:13.417Z,62.77
2022-08-17T12:15:48.880Z,62.01
2022-08-17T12:18:20.646Z,61.79
2022-08-17T12:21:01.662Z,61.75
2022-08-17T12:23:57.710Z,62.15
2022-08-17T12:26:33.543Z,61.01
2022-08-17T12:29:04.168Z,61.41
2022-08-17T12:31:53.039Z,60.78
2022-08-17T12:34:36.180Z,60.64
2022-08-17T12:37:08.288Z,61.17
2022-08-17T12:39:35.360Z,61.85
2022-08-17T12:42:03.468Z,61.94
2022-08-17T12:44:36.468Z,61.34
2022-08-17T12:47:22.251Z,61.44
2022-08-17T12:49:54.758Z,61.35
2022-08-17T12:52:33.466Z,61.07
2022-08-17T12:55:02.118Z,61.43
2022-08-17T12:57:41.261Z,61.28
2022-08-17T13:00:13.917Z,61.36
2022-08-17T13:02:51.380Z,60.74
2022-08-17T13:05:27.758Z,61.29
2022-08-17T13:07:57.776Z,61.44
2022-08-17T13:10:32.131Z,63.17
2022-08-17T13:13:05.540Z,63.85
2022-08-17T13:15:44.849Z,66.23
2022-08-17T13:18:39.234Z,68.40
2022-08-17T13:21:19.010Z,69.94
2022-08-17T13:24:04.416Z,71.45
2022-08-17T13:26:44.654Z,69.90
2022-08-17T13:29:27.729Z,69.95
2022-08-17T13:32:19.824Z,70.38
2022-08-17T13:35:12.012Z,75.33
2022-08-17T13:37:40.583Z,78.18
2022-08-17T13:40:08.247Z,78.90
2022-08-17T13:42:52.724Z,80.00
2022-08-17T13:45:36.179Z,81.06
2022-08-17T13:48:13.770Z,82.86
2022-08-17T13:51:11.215Z,85.40
2022-08-17T13:53:37.979Z,86.47
2022-08-17T13:56:37.037Z,88.81
2022-08-17T13:59:04.574Z,89.83
2022-08-17T14:01:34.424Z,89.74
2022-08-17T14:04:13.703Z,90.94
2022-08-17T14:07:24.946Z,91.25
2022-08-17T14:10:09.440Z,90.54
2022-08-17T14:12:39.951Z,90.66
2022-08-17T14:15:08.787Z,89.81
2022-08-17T14:17:38.831Z,91.19
2022-08-17T14:20:09.751Z,91.99
2022-08-17T14:22:40.845Z,92.76
2022-08-17T14:25:08.665Z,93.63
2022-08-17T14:27:47.465Z,94.27
2022-08-17T14:30:22.567Z,94.72
2022-08-17T14:32:52.002Z,95.42
2022-08-17T14:35:24.311Z,95.65
2022-08-17T14:37:52.515Z,95.98
2022-08-17T14:40:21.030Z,95.54
2022-08-17T14:42:48.308Z,94.99
2022-08-17T14:45:29.939Z,95.59
2022-08-17T14:47:59.425Z,95.99
2022-08-17T14:50:27.373Z,96.54
2022-08-17T14:52:57.880Z,96.96
2022-08-17T14:55:26.220Z,97.81
2022-08-17T14:57:53.401Z,98.52
2022-08-17T15:00:20.399Z,98.34
2022-08-17T15:02:53.902Z,98.26
2022-08-17T15:05:23.852Z,98.83
2022-08-17T15:07:51.012Z,98.99
2022-08-17T15:10:18.153Z,98.82
2022-08-17T15:12:45.661Z,99.31
2022-08-17T15:15:16.087Z,99.69
2022-08-17T15:17:46.039Z,99.58
2022-08-17T15:20:33.485Z,99.23
2022-08-17T15:23:00.677Z,97.79
2022-08-17T15:25:32.122Z,97.97
2022-08-17T15:28:00.284Z,97.77
2022-08-17T15:30:27.765Z,98.53
2022-08-17T15:32:56.893Z,98.50
2022-08-17T15:35:27.995Z,98.82
2022-08-17T15:38:06.282Z,99.02
2022-08-17T15:40:43.749Z,99.45
2022-08-17T15:43:17.359Z,99.78
2022-08-17T15:45:45.002Z,99.76
2022-08-17T15:48:40.969Z,99.96
2022-08-17T15:51:15.260Z,100.00
2022-08-17T15:53:44.838Z,99.88
2022-08-17T15:56:13.893Z,99.56
2022-08-17T15:58:42.510Z,99.53
2022-08-17T16:01:16.584Z,97.76
2022-08-17T16:04:04.096Z,97.53
2022-08-17T16:06:33.830Z,98.70
2022-08-17T16:09:00.835Z,99.45
2022-08-17T16:11:27.760Z,99.60
2022-08-17T16:13:56.023Z,100.00
2022-08-17T16:16:23.862Z,99.51
2022-08-17T16:18:54.528Z,99.37
2022-08-17T16:21:31.146Z,99.40
2022-08-17T16:24:13.447Z,99.28
2022-08-17T16:26:40.729Z,99.76
2022-08-17T16:29:08.450Z,99.59
2022-08-17T16:31:36.352Z,99.96
2022-08-17T16:34:17.458Z,99.95
2022-08-17T16:36:54.852Z,99.70
2022-08-17T16:39:29.256Z,99.72
2022-08-17T16:41:57.243Z,98.52
2022-08-17T16:44:24.320Z,99.05
2022-08-17T16:46:51.279Z,99.08
2022-08-17T16:49:35.706Z,99.36
2022-08-17T16:52:04.530Z,99.85
2022-08-17T16:54:31.474Z,99.63
2022-08-17T16:56:58.313Z,98.36
2022-08-17T16:59:31.240Z,98.35
2022-08-17T17:02:11.185Z,98.19
2022-08-17T17:04:45.788Z,97.53
2022-08-17T17:07:41.647Z,97.59
2022-08-17T17:10:13.497Z,96.66
2022-08-17T17:13:02.041Z,96.72
2022-08-17T17:15:39.845Z,97.08
2022-08-17T17:18:11.765Z,97.48
2022-08-17T17:21:12.521Z,97.37
2022-08-17T17:23:42.110Z,98.16
2022-08-17T17:26:35.531Z,98.41
2022-08-17T17:29:28.769Z,98.56
2022-08-17T17:32:21.155Z,98.76
2022-08-17T17:34:55.271Z,98.82
2022-08-17T17:37:32.650Z,98.95
2022-08-17T17:40:05.280Z,99.29
2022-08-17T17:42:33.609Z,99.84
2022-08-17T17:45:13.837Z,99.90
2022-08-17T17:47:40.914Z,100.00
2022-08-17T17:50:08.656Z,98.99
2022-08-17T17:52:47.291Z,98.88
2022-08-17T17:55:42.895Z,99.17
2022-08-17T17:58:38.958Z,98.78
2022-08-17T18:01:14.786Z,99.10
2022-08-17T18:04:04.662Z,99.01
2022-08-17T18:07:00.463Z,99.50
2022-08-17T18:09:27.285Z,98.90
2022-08-17T18:11:59.146Z,98.73
2022-08-17T18:14:35.683Z,99.48
2022-08-17T18:17:02.634Z,99.48
2022-08-17T18:19:31.119Z,99.67
2022-08-17T18:22:14.488Z,99.17
2022-08-17T18:24:44.932Z,98.47
2022-08-17T18:27:33.547Z,97.19
2022-08-17T18:30:21.768Z,98.10
2022-08-17T18:32:48.756Z,98.43
2022-08-17T18:35:18.371Z,98.54
2022-08-17T18:38:07.970Z,99.10
2022-08-17T18:40:37.827Z,98.37
2022-08-17T18:43:12.595Z,98.90
2022-08-17T18:45:47.558Z,98.53
2022-08-17T18:48:27.242Z,98.06
2022-08-17T18:50:58.500Z,98.76
2022-08-17T18:53:35.237Z,99.78
2022-08-17T18:56:34.362Z,100.00
2022-08-17T18:59:10.686Z,99.56
2022-08-17T19:02:05.088Z,99.43
2022-08-17T19:05:12.082Z,100.00
2022-08-17T19:07:46.436Z,100.00
2022-08-17T19:10:46.092Z,100.00
2022-08-17T19:13:24.340Z,99.33
2022-08-17T19:16:20.770Z,98.71
2022-08-17T19:19:16.592Z,99.13
2022-08-17T19:21:57.315Z,99.36
2022-08-17T19:24:27.530Z,99.08
2022-08-17T19:27:06.984Z,98.91
2022-08-17T19:29:57.066Z,99.13
2022-08-17T19:32:32.629Z,99.17
2022-08-17T19:35:01.364Z,98.82
2022-08-17T19:37:31.398Z,98.75
2022-08-17T19:40:35.027Z,99.14
2022-08-17T19:43:48.363Z,98.69
2022-08-17T19:46:35.714Z,99.72
2022-08-17T19:49:33.475Z,99.50
2022-08-17T19:52:40.070Z,99.72
2022-08-17T19:55:20.716Z,99.85
2022-08-17T19:58:10.904Z,99.38
2022-08-17T20:00:47.330Z,99.85
2022-08-17T20:03:23.894Z,99.36
2022-08-17T20:06:12.176Z,99.40
2022-08-17T20:08:49.552Z,99.37
2022-08-17T20:11:31.814Z,99.89
2022-08-17T20:14:15.124Z,99.96
2022-08-17T20:16:42.355Z,100.00
2022-08-17T20:19:33.945Z,99.38
2022-08-17T20:22:18.082Z,97.42
2022-08-17T20:24:45.335Z,97.08
2022-08-17T20:27:12.430Z,97.41
2022-08-17T20:30:04.587Z,96.41
2022-08-17T20:32:35.768Z,96.00
2022-08-17T20:35:21.107Z,95.66
2022-08-17T20:37:59.015Z,96.47
2022-08-17T20:40:35.543Z,96.27
2022-08-17T20:43:31.597Z,96.86
2022-08-17T20:46:32.611Z,96.47
2022-08-17T20:49:19.895Z,95.77
2022-08-17T20:52:03.088Z,95.71
2022-08-17T20:54:54.397Z,96.35
2022-08-17T20:57:33.834Z,96.62
2022-08-17T21:00:17.401Z,96.61
2022-08-17T21:03:07.781Z,96.92
2022-08-17T21:06:17.121Z,97.16
2022-08-17T21:09:07.268Z,96.77
2022-08-17T21:11:59.980Z,95.56
2022-08-17T21:14:38.287Z,95.48
2022-08-17T21:17:31.761Z,95.69
2022-08-17T21:20:12.153Z,95.86
2022-08-17T21:23:07.295Z,96.58
2022-08-17T21:26:10.857Z,96.88
2022-08-17T21:29:00.241Z,95.93
2022-08-17T21:31:35.797Z,96.28
2022-08-17T21:34:20.799Z,96.96
2022-08-17T21:36:48.816Z,96.36
2022-08-17T21:39:23.285Z,96.04
2022-08-17T21:42:01.147Z,97.18
2022-08-17T21:44:38.010Z,97.57
2022-08-17T21:47:24.061Z,97.43
2022-08-17T21:49:55.191Z,96.57
2022-08-17T21:52:26.931Z,96.26
2022-08-17T21:54:57.391Z,97.01
2022-08-17T21:57:28.167Z,97.10
2022-08-17T22:00:01.470Z,96.06
2022-08-17T22:02:36.380Z,96.50
2022-08-17T22:05:09.008Z,97.12
2022-08-17T22:07:40.593Z,97.95
2022-08-17T22:10:30.028Z,96.90
2022-08-17T22:13:04.855Z,95.27
2022-08-17T22:15:31.944Z,95.39
2022-08-17T22:18:04.398Z,95.96
2022-08-17T22:20:31.466Z,95.74
2022-08-17T22:23:19.562Z,95.25
2022-08-17T22:26:00.259Z,95.52
2022-08-17T22:28:45.812Z,95.15
2022-08-17T22:31:16.421Z,93.58
2022-08-17T22:33:45.973Z,94.04
2022-08-17T22:36:33.232Z,94.67
2022-08-17T22:39:07.620Z,94.10
2022-08-17T22:42:00.488Z,94.52
2022-08-17T22:44:35.783Z,94.33
2022-08-17T22:47:24.405Z,94.22
2022-08-17T22:49:57.965Z,94.51
2022-08-17T22:52:35.254Z,94.52
2022-08-17T22:55:32.728Z,94.70
2022-08-17T22:58:19.381Z,94.58
2022-08-17T23:00:49.172Z,95.51
2022-08-17T23:03:21.036Z,95.99
2022-08-17T23:06:09.088Z,95.63
2022-08-17T23:08:50.392Z,94.15
2022-08-17T23:11:17.257Z,94.07
2022-08-17T23:13:44.601Z,93.59
2022-08-17T23:16:11.461Z,93.43
2022-08-17T23:18:38.755Z,94.10
2022-08-17T23:21:07.595Z,94.64
2022-08-17T23:23:35.433Z,94.56
2022-08-17T23:26:10.598Z,95.09
2022-08-17T23:28:38.222Z,94.84
2022-08-17T23:31:05.726Z,95.63
2022-08-17T23:33:38.814Z,94.53
2022-08-17T23:36:09.021Z,93.61
2022-08-17T23:38:36.679Z,94.17
2022-08-17T23:41:11.922Z,94.51
2022-08-17T23:43:40.089Z,94.89
2022-08-17T23:46:07.424Z,95.16
2022-08-17T23:48:36.557Z,94.73
2022-08-17T23:51:18.281Z,94.68
2022-08-17T23:53:49.385Z,94.67
2022-08-17T23:56:19.786Z,94.60
2022-08-17T23:58:46.657Z,94.67
